Terminal Aerodrome Forecast
Issued by NWS

Home | Current Version | Previous Version | Text Only | Print | Product List | Glossary On
Versions: 1 2 3 4 5 6 7 8 9 10 11 12 13 14 15 16
000
FTUS45 KPIH 251200 AAA
TAFSUN
TAF AMD
KSUN 251253Z 2513/2612 31007KT P6SM BKN180
      TEMPO 2513/2516 VRB03KT 5SM BR BKN180
     FM252000 14006KT P6SM SCT120 BKN180
     FM260400 31007KT P6SM FEW180
      AMD LTD TO CLD VIS AND WIND TIL 251400=

USA.gov is the U.S. government's official web portal to all federal, state and local government web resources and services.